createdAt,value
2018-04-02T00:02:02.111Z,17.50
2018-04-02T00:04:29.472Z,16.47
2018-04-02T00:06:56.853Z,16.37
2018-04-02T00:09:24.218Z,15.83
2018-04-02T00:11:51.610Z,17.03
2018-04-02T00:14:18.992Z,17.17
2018-04-02T00:16:46.374Z,17.53
2018-04-02T00:19:13.757Z,17.03
2018-04-02T00:21:41.129Z,18.00
2018-04-02T00:24:08.484Z,18.80
2018-04-02T00:26:35.920Z,16.77
2018-04-02T00:29:03.354Z,18.50
2018-04-02T00:31:30.708Z,17.47
2018-04-02T00:33:58.093Z,17.00
2018-04-02T00:36:25.497Z,17.70
2018-04-02T00:38:52.906Z,17.93
2018-04-02T00:41:20.272Z,18.50
2018-04-02T00:43:47.629Z,18.00
2018-04-02T00:46:15.018Z,18.83
2018-04-02T00:48:42.395Z,18.00
2018-04-02T00:51:09.791Z,20.33
2018-04-02T00:53:37.150Z,19.43
2018-04-02T00:56:04.506Z,20.50
2018-04-02T00:58:31.915Z,21.07
2018-04-02T01:00:59.278Z,20.33
2018-04-02T01:03:26.632Z,23.17
2018-04-02T01:05:54.058Z,22.47
2018-04-02T01:08:21.413Z,21.10
2018-04-02T01:10:48.778Z,21.60
2018-04-02T01:13:16.174Z,21.50
2018-04-02T01:15:43.524Z,19.30
2018-04-02T01:18:10.888Z,20.60
2018-04-02T01:20:38.294Z,21.43
2018-04-02T01:23:05.701Z,19.10
2018-04-02T01:25:33.076Z,18.53
2018-04-02T01:28:00.492Z,21.37
2018-04-02T01:30:27.858Z,17.40
2018-04-02T01:32:55.216Z,19.43
2018-04-02T01:35:22.603Z,19.87
2018-04-02T01:37:49.992Z,20.60
2018-04-02T01:40:17.350Z,19.30
2018-04-02T01:42:44.705Z,19.53
2018-04-02T01:45:12.101Z,15.57
2018-04-02T01:47:39.514Z,19.50
2018-04-02T01:50:06.930Z,16.73
2018-04-02T01:52:34.304Z,20.07
2018-04-02T01:55:01.693Z,18.20
2018-04-02T01:57:29.071Z,19.93
2018-04-02T01:59:56.565Z,18.37
2018-04-02T02:02:23.972Z,18.43
2018-04-02T02:04:51.334Z,19.90
2018-04-02T02:07:18.742Z,20.47
2018-04-02T02:09:46.145Z,18.77
2018-04-02T02:12:13.503Z,21.63
2018-04-02T02:14:40.861Z,20.87
2018-04-02T02:17:08.342Z,21.20
2018-04-02T02:19:35.701Z,22.00
2018-04-02T02:22:03.058Z,22.13
2018-04-02T02:24:30.447Z,20.40
2018-04-02T02:26:57.841Z,19.17
2018-04-02T02:29:25.192Z,22.60
2018-04-02T02:31:52.562Z,22.00
2018-04-02T02:34:19.946Z,23.07
2018-04-02T02:36:47.298Z,23.10
2018-04-02T02:39:14.659Z,22.30
2018-04-02T02:41:42.080Z,22.60
2018-04-02T02:44:09.458Z,22.07
2018-04-02T02:46:36.809Z,21.70
2018-04-02T02:49:04.315Z,23.60
2018-04-02T02:51:31.673Z,25.53
2018-04-02T02:53:59.057Z,25.50
2018-04-02T02:56:26.417Z,25.57
2018-04-02T02:58:53.776Z,26.30
2018-04-02T03:01:21.265Z,25.90
2018-04-02T03:03:48.632Z,21.30
2018-04-02T03:06:15.996Z,26.87
2018-04-02T03:08:43.406Z,27.10
2018-04-02T03:11:10.766Z,25.33
2018-04-02T03:13:38.134Z,25.97
2018-04-02T03:16:05.537Z,24.90
2018-04-02T03:18:32.899Z,23.70
2018-04-02T03:21:00.257Z,22.23
2018-04-02T03:23:27.658Z,28.10
2018-04-02T03:25:55.030Z,20.33
2018-04-02T03:28:22.385Z,28.00
2018-04-02T03:30:49.786Z,24.47
2018-04-02T03:33:17.186Z,28.00
2018-04-02T03:35:44.583Z,28.27
2018-04-02T03:38:11.939Z,30.57
2018-04-02T03:40:39.349Z,28.97
2018-04-02T03:43:06.737Z,28.93
2018-04-02T03:45:34.094Z,29.13
2018-04-02T03:48:01.460Z,29.50
2018-04-02T03:50:28.871Z,30.20
2018-04-02T03:52:56.257Z,30.27
2018-04-02T03:55:23.630Z,30.27
2018-04-02T03:57:51.026Z,30.90
2018-04-02T04:00:18.550Z,31.13
2018-04-02T04:02:46.001Z,32.17
2018-04-02T04:05:13.361Z,30.97
2018-04-02T04:07:40.922Z,29.70
2018-04-02T04:10:08.274Z,32.40
2018-04-02T04:12:35.633Z,30.30
2018-04-02T04:15:03.020Z,32.73
2018-04-02T04:17:30.377Z,32.17
2018-04-02T04:19:57.780Z,32.10
2018-04-02T04:22:25.133Z,31.67
2018-04-02T04:24:52.484Z,33.10
2018-04-02T04:27:19.861Z,31.60
2018-04-02T04:29:47.220Z,31.87
2018-04-02T04:32:15.417Z,34.10
2018-04-02T04:34:42.769Z,32.33
2018-04-02T04:37:10.161Z,32.43
2018-04-02T04:39:37.569Z,33.57
2018-04-02T04:42:04.966Z,34.00
2018-04-02T04:44:32.319Z,31.60
2018-04-02T04:46:59.721Z,31.87
2018-04-02T04:49:27.081Z,32.70
2018-04-02T04:51:54.446Z,31.87
2018-04-02T04:54:21.837Z,30.77
2018-04-02T04:56:49.205Z,33.00
2018-04-02T04:59:16.560Z,33.30
2018-04-02T05:01:43.951Z,32.33
2018-04-02T05:04:11.306Z,32.10
2018-04-02T05:06:38.706Z,32.87
2018-04-02T05:09:06.060Z,32.17
2018-04-02T05:11:33.418Z,32.97
2018-04-02T05:14:00.805Z,32.30
2018-04-02T05:16:28.173Z,29.90
2018-04-02T05:18:55.526Z,31.33
2018-04-02T05:21:22.917Z,29.47
2018-04-02T05:23:50.275Z,30.30
2018-04-02T05:26:17.654Z,26.67
2018-04-02T05:28:45.045Z,30.23
2018-04-02T05:31:12.397Z,31.20
2018-04-02T05:33:39.791Z,28.47
2018-04-02T05:36:07.149Z,30.03
2018-04-02T05:38:34.513Z,30.30
2018-04-02T05:41:01.915Z,26.43
2018-04-02T05:43:29.276Z,29.07
2018-04-02T05:45:56.673Z,28.13
2018-04-02T05:48:24.029Z,28.73
2018-04-02T05:50:51.393Z,26.40
2018-04-02T05:53:18.834Z,28.40
2018-04-02T05:55:46.214Z,29.57
2018-04-02T05:58:13.615Z,28.70
2018-04-02T06:00:41.020Z,29.97
2018-04-02T06:03:08.430Z,28.27
2018-04-02T06:05:35.785Z,26.77
2018-04-02T06:08:03.191Z,25.70
2018-04-02T06:10:30.630Z,28.03
2018-04-02T06:12:58.012Z,27.90
2018-04-02T06:15:25.370Z,27.07
2018-04-02T06:17:52.752Z,26.47
2018-04-02T06:20:20.150Z,24.63
2018-04-02T06:22:47.509Z,24.77
2018-04-02T06:25:14.889Z,25.30
2018-04-02T06:27:42.320Z,28.10
2018-04-02T06:30:09.694Z,25.67
2018-04-02T06:32:37.058Z,26.60
2018-04-02T06:35:04.458Z,24.90
2018-04-02T06:37:31.809Z,25.00
2018-04-02T06:39:59.177Z,24.73
2018-04-02T06:42:26.566Z,20.17
2018-04-02T06:44:53.926Z,23.37
2018-04-02T06:47:21.341Z,22.73
2018-04-02T06:49:48.725Z,23.77
2018-04-02T06:52:16.133Z,22.57
2018-04-02T06:54:43.540Z,21.07
2018-04-02T06:57:10.898Z,23.87
2018-04-02T06:59:38.257Z,23.13
2018-04-02T07:02:05.674Z,23.67
2018-04-02T07:04:33.084Z,22.33
2018-04-02T07:07:00.418Z,23.27
2018-04-02T07:09:27.798Z,24.60
2018-04-02T07:11:55.158Z,24.30
2018-04-02T07:14:22.558Z,21.80
2018-04-02T07:16:49.910Z,23.07
2018-04-02T07:19:17.269Z,23.53
2018-04-02T07:21:44.729Z,25.40
2018-04-02T07:24:12.085Z,24.10
2018-04-02T07:26:39.441Z,24.10
2018-04-02T07:29:06.849Z,22.70
2018-04-02T07:31:34.220Z,22.03
2018-04-02T07:34:01.582Z,20.50
2018-04-02T07:36:28.964Z,23.07
2018-04-02T07:38:56.321Z,21.23
2018-04-02T07:41:23.755Z,23.80
2018-04-02T07:43:51.110Z,23.57
2018-04-02T07:46:18.478Z,21.17
2018-04-02T07:48:45.881Z,23.07
2018-04-02T07:51:13.246Z,22.70
2018-04-02T07:53:40.612Z,21.80
2018-04-02T07:56:08.021Z,21.83
2018-04-02T07:58:35.559Z,21.03
2018-04-02T08:01:02.933Z,21.50
2018-04-02T08:03:30.294Z,20.77
2018-04-02T08:05:57.685Z,21.77
2018-04-02T08:08:25.058Z,19.80
2018-04-02T08:10:52.427Z,17.43
2018-04-02T08:13:19.812Z,18.70
2018-04-02T08:15:47.277Z,18.60
2018-04-02T08:18:14.663Z,18.60
2018-04-02T08:20:42.027Z,18.83
2018-04-02T08:23:09.437Z,17.43
2018-04-02T08:25:36.801Z,18.10
2018-04-02T08:28:04.153Z,17.60
2018-04-02T08:30:31.545Z,17.57
2018-04-02T08:32:58.903Z,17.50
2018-04-02T08:35:26.478Z,16.17
2018-04-02T08:37:53.849Z,16.13
2018-04-02T08:40:21.217Z,16.40
2018-04-02T08:42:48.617Z,16.60
2018-04-02T08:45:15.976Z,14.43
2018-04-02T08:47:43.332Z,13.67
2018-04-02T08:50:10.756Z,14.90
2018-04-02T08:52:38.169Z,15.17
2018-04-02T08:55:05.535Z,14.10
2018-04-02T08:57:32.907Z,14.20
2018-04-02T09:00:00.313Z,13.13
2018-04-02T09:02:27.674Z,12.60
2018-04-02T09:04:55.050Z,12.30
2018-04-02T09:07:22.453Z,13.00
2018-04-02T09:09:53.413Z,14.10
2018-04-02T09:12:20.836Z,13.60
2018-04-02T09:14:48.201Z,12.73
2018-04-02T09:17:15.593Z,13.70
2018-04-02T09:19:42.973Z,12.60
2018-04-02T09:22:10.341Z,12.90
2018-04-02T09:24:37.737Z,13.27
2018-04-02T09:27:05.096Z,12.50
2018-04-02T09:29:33.379Z,13.10
2018-04-02T09:32:00.774Z,12.60
2018-04-02T09:34:28.132Z,12.33
2018-04-02T09:36:55.500Z,11.67
2018-04-02T09:39:22.879Z,11.17
2018-04-02T09:41:50.238Z,12.30
2018-04-02T09:44:17.653Z,9.90
2018-04-02T09:46:45.942Z,10.80
2018-04-02T09:49:13.293Z,11.03
2018-04-02T09:51:40.776Z,10.03
2018-04-02T09:54:08.150Z,10.13
2018-04-02T09:56:35.545Z,9.67
2018-04-02T09:59:02.949Z,9.50
2018-04-02T10:01:30.374Z,8.07
2018-04-02T10:03:58.310Z,8.77
2018-04-02T10:06:25.797Z,9.53
2018-04-02T10:08:53.200Z,8.60
2018-04-02T10:11:20.550Z,7.90
2018-04-02T10:13:47.947Z,8.53
2018-04-02T10:16:15.342Z,7.70
2018-04-02T10:18:42.693Z,8.17
2018-04-02T10:21:10.121Z,6.30
2018-04-02T10:23:37.470Z,6.00
2018-04-02T10:26:04.827Z,5.80
2018-04-02T10:28:32.237Z,6.77
2018-04-02T10:30:59.585Z,6.10
2018-04-02T10:33:26.932Z,6.33
2018-04-02T10:35:54.314Z,6.40
2018-04-02T10:38:21.666Z,7.30
2018-04-02T10:40:49.070Z,6.77
2018-04-02T10:43:16.454Z,6.00
2018-04-02T10:45:44.312Z,6.53
2018-04-02T10:48:11.692Z,6.10
2018-04-02T10:50:39.055Z,6.80
2018-04-02T10:53:06.418Z,7.97
2018-04-02T10:55:33.789Z,7.27
2018-04-02T10:58:01.138Z,6.63
2018-04-02T11:00:28.520Z,7.40
2018-04-02T11:02:55.878Z,7.13
2018-04-02T11:05:23.292Z,7.03
2018-04-02T11:07:50.659Z,7.20
2018-04-02T11:10:18.010Z,6.97
2018-04-02T11:12:45.437Z,6.80
2018-04-02T11:15:12.783Z,7.20
2018-04-02T11:17:40.148Z,7.20
2018-04-02T11:20:07.559Z,7.57
2018-04-02T11:22:34.925Z,7.23
2018-04-02T11:25:02.309Z,7.93
2018-04-02T11:27:29.718Z,6.90
2018-04-02T11:29:57.074Z,7.00
2018-04-02T11:32:24.439Z,8.00
2018-04-02T11:34:51.829Z,7.57
2018-04-02T11:37:19.189Z,6.90
2018-04-02T11:39:46.588Z,7.53
2018-04-02T11:42:13.962Z,6.60
2018-04-02T11:44:41.325Z,7.37
2018-04-02T11:47:08.721Z,6.53
2018-04-02T11:49:36.075Z,6.90
2018-04-02T11:52:03.446Z,7.30
2018-04-02T11:54:30.817Z,7.00
2018-04-02T11:56:58.171Z,7.50
2018-04-02T11:59:25.584Z,7.20
2018-04-02T12:01:52.991Z,7.43
2018-04-02T12:04:20.341Z,7.20
2018-04-02T12:06:47.689Z,6.70
2018-04-02T12:09:15.079Z,6.30
2018-04-02T12:11:42.437Z,7.43
2018-04-02T12:14:09.861Z,8.83
2018-04-02T12:16:37.246Z,7.23
2018-04-02T12:19:04.598Z,7.90
2018-04-02T12:21:32.008Z,9.10
2018-04-02T12:23:59.386Z,8.30
2018-04-02T12:26:26.775Z,7.93
2018-04-02T12:28:54.187Z,8.37
2018-04-02T12:31:21.540Z,7.87
2018-04-02T12:33:48.947Z,7.80
2018-04-02T12:36:16.293Z,8.10
2018-04-02T12:38:43.637Z,8.10
2018-04-02T12:41:11.037Z,8.53
2018-04-02T12:43:38.443Z,8.70
2018-04-02T12:46:05.811Z,8.50
2018-04-02T12:48:33.264Z,9.03
2018-04-02T12:51:00.632Z,7.83
2018-04-02T12:53:27.987Z,8.40
2018-04-02T12:55:55.398Z,8.87
2018-04-02T12:58:22.780Z,8.23
2018-04-02T13:00:50.134Z,8.50
2018-04-02T13:03:17.484Z,9.37
2018-04-02T13:05:44.925Z,9.77
2018-04-02T13:08:12.297Z,9.73
2018-04-02T13:10:39.709Z,9.37
2018-04-02T13:13:07.072Z,9.67
2018-04-02T13:15:34.470Z,8.70
2018-04-02T13:18:01.865Z,10.20
2018-04-02T13:20:29.271Z,9.60
2018-04-02T13:22:56.634Z,10.30
2018-04-02T13:25:24.022Z,9.47
2018-04-02T13:27:51.409Z,9.33
2018-04-02T13:30:18.793Z,10.87
2018-04-02T13:32:46.158Z,9.20
2018-04-02T13:35:13.549Z,10.80
2018-04-02T13:37:40.907Z,9.90
2018-04-02T13:40:08.288Z,9.30
2018-04-02T13:42:35.668Z,10.40
2018-04-02T13:45:03.037Z,10.00
2018-04-02T13:47:30.546Z,10.47
2018-04-02T13:49:57.911Z,10.30
2018-04-02T13:52:25.277Z,10.43
2018-04-02T13:54:52.700Z,11.30
2018-04-02T13:57:20.110Z,12.90
2018-04-02T13:59:47.470Z,13.57
2018-04-02T14:02:14.873Z,13.03
2018-04-02T14:04:42.256Z,13.47
2018-04-02T14:07:10.123Z,12.20
2018-04-02T14:09:37.534Z,12.57
2018-04-02T14:12:04.889Z,12.60
2018-04-02T14:14:32.248Z,12.70
2018-04-02T14:16:59.661Z,12.15
2018-04-02T14:19:27.033Z,12.50
2018-04-02T14:21:54.456Z,12.90
2018-04-02T14:24:21.859Z,13.57
2018-04-02T14:26:49.224Z,13.80
2018-04-02T14:29:16.585Z,13.97
2018-04-02T14:31:43.980Z,14.90
2018-04-02T14:34:11.337Z,14.73
2018-04-02T14:36:38.737Z,16.03
2018-04-02T14:39:06.117Z,14.60
2018-04-02T14:41:33.503Z,15.00
2018-04-02T14:44:00.923Z,13.70
2018-04-02T14:46:28.309Z,14.17
2018-04-02T14:48:55.717Z,14.37
2018-04-02T14:51:23.107Z,15.87
2018-04-02T14:53:50.486Z,16.80
2018-04-02T14:56:17.930Z,16.03
2018-04-02T14:58:45.286Z,17.17
2018-04-02T15:01:12.644Z,17.37
2018-04-02T15:03:40.081Z,18.10
2018-04-02T15:06:07.525Z,16.90
2018-04-02T15:08:34.949Z,16.83
2018-04-02T15:11:02.351Z,17.20
2018-04-02T15:13:29.726Z,17.10
2018-04-02T15:15:57.118Z,18.40
2018-04-02T15:18:24.521Z,17.77
2018-04-02T15:20:51.889Z,19.70
2018-04-02T15:23:19.245Z,19.47
2018-04-02T15:25:47.611Z,19.43
2018-04-02T15:28:14.979Z,21.07
2018-04-02T15:30:42.338Z,20.57
2018-04-02T15:33:09.742Z,21.33
2018-04-02T15:35:37.093Z,21.03
2018-04-02T15:38:04.446Z,21.20
2018-04-02T15:40:34.974Z,19.95
2018-04-02T15:43:02.338Z,21.70
2018-04-02T15:45:29.737Z,19.80
2018-04-02T15:47:57.140Z,21.20
2018-04-02T15:50:24.496Z,20.90
2018-04-02T15:52:51.858Z,20.90
2018-04-02T15:55:19.358Z,21.10
2018-04-02T15:57:46.716Z,20.63
2018-04-02T16:00:14.130Z,20.30
2018-04-02T16:02:41.492Z,21.70
2018-04-02T16:05:08.851Z,20.50
2018-04-02T16:07:36.264Z,20.33
2018-04-02T16:10:03.626Z,20.30
2018-04-02T16:12:30.981Z,21.50
2018-04-02T16:14:58.405Z,22.03
2018-04-02T16:17:25.777Z,23.63
2018-04-02T16:19:53.173Z,23.33
2018-04-02T16:22:20.553Z,23.13
2018-04-02T16:24:47.930Z,21.47
2018-04-02T16:27:15.354Z,22.40
2018-04-02T16:29:42.733Z,23.87
2018-04-02T16:32:10.090Z,24.87
2018-04-02T16:34:37.506Z,26.80
2018-04-02T16:37:04.893Z,34.73
2018-04-02T16:39:32.261Z,26.90
2018-04-02T16:41:59.661Z,25.00
2018-04-02T16:44:27.026Z,28.30
2018-04-02T16:46:54.398Z,25.40
2018-04-02T16:49:21.817Z,26.07
2018-04-02T16:51:49.195Z,24.97
2018-04-02T16:54:16.608Z,27.50
2018-04-02T16:56:43.990Z,29.00
2018-04-02T16:59:11.393Z,29.17
2018-04-02T17:01:38.796Z,28.53
2018-04-02T17:04:06.153Z,27.07
2018-04-02T17:06:33.537Z,26.40
2018-04-02T17:09:01.649Z,26.87
2018-04-02T17:11:29.026Z,27.67
2018-04-02T17:13:56.528Z,27.03
2018-04-02T17:16:23.885Z,29.70
2018-04-02T17:18:51.263Z,30.83
2018-04-02T17:21:18.661Z,29.23
2018-04-02T17:23:46.038Z,26.70
2018-04-02T17:26:13.394Z,27.53
2018-04-02T17:28:40.812Z,26.40
2018-04-02T17:31:08.189Z,27.20
2018-04-02T17:33:35.566Z,26.60
2018-04-02T17:36:02.962Z,27.73
2018-04-02T17:38:30.340Z,30.03
2018-04-02T17:40:57.745Z,31.53
2018-04-02T17:43:25.102Z,32.00
2018-04-02T17:45:52.469Z,30.05
2018-04-02T17:48:19.845Z,30.03
2018-04-02T17:50:47.252Z,28.97
2018-04-02T17:53:14.605Z,30.20
2018-04-02T17:55:42.016Z,29.27
2018-04-02T17:58:09.402Z,31.37
2018-04-02T18:00:36.756Z,29.90
2018-04-02T18:03:04.109Z,27.60
2018-04-02T18:05:31.514Z,29.67
2018-04-02T18:07:58.877Z,28.53
2018-04-02T18:10:29.647Z,27.83
2018-04-02T18:12:57.010Z,26.70
2018-04-02T18:15:24.406Z,27.23
2018-04-02T18:17:51.774Z,26.80
2018-04-02T18:20:19.125Z,31.60
2018-04-02T18:22:46.501Z,31.50
2018-04-02T18:25:13.856Z,32.07
2018-04-02T18:27:41.245Z,32.30
2018-04-02T18:30:08.599Z,33.80
2018-04-02T18:32:35.965Z,31.97
2018-04-02T18:35:03.370Z,32.50
2018-04-02T18:37:30.756Z,34.00
2018-04-02T18:39:58.129Z,32.50
2018-04-02T18:42:25.537Z,33.60
2018-04-02T18:44:52.921Z,33.87
2018-04-02T18:47:20.286Z,33.60
2018-04-02T18:49:47.691Z,32.77
2018-04-02T18:52:15.063Z,30.10
2018-04-02T18:54:42.446Z,28.93
2018-04-02T18:57:09.850Z,29.37
2018-04-02T18:59:37.219Z,30.93
2018-04-02T19:02:04.620Z,29.50
2018-04-02T19:04:32.030Z,28.37
2018-04-02T19:06:59.389Z,29.57
2018-04-02T19:09:26.770Z,29.00
2018-04-02T19:11:54.157Z,28.93
2018-04-02T19:14:21.592Z,29.17
2018-04-02T19:16:49.003Z,27.13
2018-04-02T19:19:16.378Z,27.83
2018-04-02T19:21:43.823Z,28.07
2018-04-02T19:24:11.191Z,27.17
2018-04-02T19:26:38.557Z,26.93
2018-04-02T19:29:05.947Z,27.50
2018-04-02T19:31:33.391Z,26.73
2018-04-02T19:34:00.763Z,27.30
2018-04-02T19:36:28.143Z,26.77
2018-04-02T19:38:55.551Z,26.37
2018-04-02T19:41:22.922Z,29.27
2018-04-02T19:43:50.285Z,31.07
2018-04-02T19:46:17.691Z,28.30
2018-04-02T19:48:45.067Z,27.40
2018-04-02T19:51:12.440Z,27.00
2018-04-02T19:53:39.927Z,26.33
2018-04-02T19:56:07.407Z,26.23
2018-04-02T19:58:34.779Z,27.63
2018-04-02T20:01:02.183Z,27.13
2018-04-02T20:03:29.546Z,29.60
2018-04-02T20:05:56.909Z,30.27
2018-04-02T20:08:24.299Z,28.50
2018-04-02T20:10:51.715Z,28.20
2018-04-02T20:13:19.113Z,28.70
2018-04-02T20:15:46.474Z,30.57
2018-04-02T20:18:13.908Z,30.43
2018-04-02T20:20:41.274Z,28.83
2018-04-02T20:23:08.682Z,27.53
2018-04-02T20:25:36.087Z,26.80
2018-04-02T20:28:03.506Z,26.00
2018-04-02T20:30:30.874Z,26.00
2018-04-02T20:32:59.188Z,27.10
2018-04-02T20:35:26.600Z,26.17
2018-04-02T20:37:53.986Z,25.63
2018-04-02T20:40:21.378Z,24.90
2018-04-02T20:42:48.729Z,24.20
2018-04-02T20:45:16.093Z,23.63
2018-04-02T20:47:43.513Z,24.40
2018-04-02T20:50:10.869Z,23.70
2018-04-02T20:52:38.256Z,24.70
2018-04-02T20:55:05.663Z,24.07
2018-04-02T20:57:33.093Z,23.77
2018-04-02T21:00:00.565Z,24.60
2018-04-02T21:02:27.966Z,23.73
2018-04-02T21:04:55.348Z,22.57
2018-04-02T21:07:22.708Z,24.17
2018-04-02T21:09:50.113Z,24.87
2018-04-02T21:12:20.465Z,22.90
2018-04-02T21:14:47.827Z,23.63
2018-04-02T21:17:15.209Z,23.90
2018-04-02T21:19:42.617Z,22.90
2018-04-02T21:22:10.001Z,22.80
2018-04-02T21:24:37.393Z,24.27
2018-04-02T21:27:04.753Z,23.23
2018-04-02T21:29:32.123Z,24.50
2018-04-02T21:31:59.657Z,25.33
2018-04-02T21:34:27.018Z,24.13
2018-04-02T21:36:54.374Z,23.33
2018-04-02T21:39:21.757Z,27.33
2018-04-02T21:41:49.174Z,23.87
2018-04-02T21:44:16.547Z,24.37
2018-04-02T21:46:43.988Z,24.47
2018-04-02T21:49:11.382Z,25.80
2018-04-02T21:51:38.766Z,23.27
2018-04-02T21:54:06.144Z,23.53
2018-04-02T21:56:33.553Z,23.77
2018-04-02T21:59:00.981Z,23.67
2018-04-02T22:01:28.345Z,23.27
2018-04-02T22:03:55.706Z,24.50
2018-04-02T22:06:28.977Z,23.20
2018-04-02T22:08:56.340Z,23.67
2018-04-02T22:11:23.736Z,23.90
2018-04-02T22:13:51.114Z,23.93
2018-04-02T22:16:18.473Z,23.00
2018-04-02T22:18:45.877Z,23.07
2018-04-02T22:21:13.242Z,23.67
2018-04-02T22:23:40.610Z,23.47
2018-04-02T22:26:07.994Z,24.03
2018-04-02T22:28:35.393Z,22.17
2018-04-02T22:31:02.812Z,21.80
2018-04-02T22:33:30.194Z,23.07
2018-04-02T22:35:57.558Z,22.33
2018-04-02T22:38:24.933Z,22.50
2018-04-02T22:40:52.293Z,22.53
2018-04-02T22:43:20.054Z,22.93
2018-04-02T22:45:47.406Z,22.33
2018-04-02T22:48:14.772Z,21.97
2018-04-02T22:50:42.181Z,22.93
2018-04-02T22:53:09.550Z,23.30
2018-04-02T22:55:36.906Z,22.77
2018-04-02T22:58:04.290Z,22.20
2018-04-02T23:00:31.853Z,21.97
2018-04-02T23:02:59.221Z,22.57
2018-04-02T23:05:26.574Z,21.40
2018-04-02T23:07:53.968Z,21.97
2018-04-02T23:10:21.328Z,21.50
2018-04-02T23:12:48.696Z,21.80
2018-04-02T23:15:16.102Z,21.23
2018-04-02T23:17:43.465Z,21.10
2018-04-02T23:20:10.836Z,23.00
2018-04-02T23:22:44.054Z,21.20
2018-04-02T23:25:11.409Z,21.00
2018-04-02T23:27:38.765Z,21.13
2018-04-02T23:30:06.202Z,20.93
2018-04-02T23:32:33.565Z,20.80
2018-04-02T23:35:00.924Z,21.00
2018-04-02T23:37:28.326Z,21.20
2018-04-02T23:39:55.681Z,21.87
2018-04-02T23:42:23.055Z,20.50
2018-04-02T23:44:50.466Z,20.60
2018-04-02T23:47:17.866Z,21.60
2018-04-02T23:49:45.217Z,21.43
2018-04-02T23:52:12.613Z,21.43
2018-04-02T23:54:39.982Z,20.40
2018-04-02T23:57:07.343Z,20.47
2018-04-02T23:59:34.756Z,20.97
